createdAt,value
2023-05-21T00:00:50.107Z,1016.71
2023-05-21T00:01:50.150Z,1016.69
2023-05-21T00:02:50.160Z,1016.69
2023-05-21T00:03:50.322Z,1016.69
2023-05-21T00:04:50.061Z,1016.68
2023-05-21T00:05:50.237Z,1016.66
2023-05-21T00:06:50.064Z,1016.64
2023-05-21T00:07:50.082Z,1016.65
2023-05-21T00:08:50.016Z,1016.64
2023-05-21T00:09:50.028Z,1016.63
2023-05-21T00:10:50.003Z,1016.63
2023-05-21T00:11:50.001Z,1016.63
2023-05-21T00:12:50.029Z,1016.61
2023-05-21T00:13:49.979Z,1016.60
2023-05-21T00:14:49.956Z,1016.61
2023-05-21T00:15:49.953Z,1016.60
2023-05-21T00:16:50.093Z,1016.60
2023-05-21T00:17:49.954Z,1016.58
2023-05-21T00:18:49.971Z,1016.59
2023-05-21T00:19:49.918Z,1016.58
2023-05-21T00:20:49.888Z,1016.57
2023-05-21T00:21:49.896Z,1016.58
2023-05-21T00:22:49.895Z,1016.57
2023-05-21T00:23:49.895Z,1016.56
2023-05-21T00:24:49.853Z,1016.54
2023-05-21T00:25:49.851Z,1016.54
2023-05-21T00:26:49.836Z,1016.54
2023-05-21T00:27:49.832Z,1016.54
2023-05-21T00:28:49.826Z,1016.52
2023-05-21T00:29:49.818Z,1016.51
2023-05-21T00:30:49.790Z,1016.50
2023-05-21T00:31:49.798Z,1016.49
2023-05-21T00:32:49.827Z,1016.49
2023-05-21T00:33:49.778Z,1016.49
2023-05-21T00:34:49.757Z,1016.48
2023-05-21T00:35:49.735Z,1016.49
2023-05-21T00:36:49.747Z,1016.49
2023-05-21T00:37:49.746Z,1016.50
2023-05-21T00:38:49.717Z,1016.49
2023-05-21T00:39:49.704Z,1016.50
2023-05-21T00:40:49.690Z,1016.49
2023-05-21T00:41:49.680Z,1016.49
2023-05-21T00:42:49.698Z,1016.48
2023-05-21T00:43:49.659Z,1016.48
2023-05-21T00:44:49.641Z,1016.46
2023-05-21T00:45:49.671Z,1016.44
2023-05-21T00:46:49.618Z,1016.43
2023-05-21T00:47:49.673Z,1016.42
2023-05-21T00:48:49.606Z,1016.42
2023-05-21T00:49:49.611Z,1016.41
2023-05-21T00:50:49.594Z,1016.40
2023-05-21T00:51:49.608Z,1016.39
2023-05-21T00:52:52.146Z,1016.37
2023-05-21T00:53:49.561Z,1016.37
2023-05-21T00:54:49.540Z,1016.38
2023-05-21T00:55:49.568Z,1016.37
2023-05-21T00:56:49.517Z,1016.36
2023-05-21T00:57:52.824Z,1016.35
2023-05-21T00:58:49.492Z,1016.36
2023-05-21T00:59:49.505Z,1016.34
2023-05-21T01:00:49.474Z,1016.33
2023-05-21T01:01:50.726Z,1016.32
2023-05-21T01:02:49.574Z,1016.31
2023-05-21T01:03:49.484Z,1016.30
2023-05-21T01:04:49.428Z,1016.29
2023-05-21T01:05:49.433Z,1016.28
2023-05-21T01:06:49.438Z,1016.27
2023-05-21T01:07:53.576Z,1016.28
2023-05-21T01:08:49.401Z,1016.27
2023-05-21T01:09:49.421Z,1016.26
2023-05-21T01:10:49.377Z,1016.24
2023-05-21T01:11:49.387Z,1016.23
2023-05-21T01:12:49.355Z,1016.23
2023-05-21T01:13:49.377Z,1016.22
2023-05-21T01:14:49.359Z,1016.20
2023-05-21T01:15:49.334Z,1016.20
2023-05-21T01:16:49.377Z,1016.19
2023-05-21T01:17:50.876Z,1016.18
2023-05-21T01:18:49.412Z,1016.18
2023-05-21T01:19:49.418Z,1016.18
2023-05-21T01:20:49.304Z,1016.18
2023-05-21T01:21:49.277Z,1016.19
2023-05-21T01:22:49.265Z,1016.19
2023-05-21T01:23:49.272Z,1016.19
2023-05-21T01:24:49.232Z,1016.20
2023-05-21T01:25:49.231Z,1016.19
2023-05-21T01:26:49.242Z,1016.20
2023-05-21T01:27:49.210Z,1016.19
2023-05-21T01:28:49.205Z,1016.20
2023-05-21T01:29:49.202Z,1016.20
2023-05-21T01:30:49.176Z,1016.19
2023-05-21T01:31:49.209Z,1016.17
2023-05-21T01:32:49.292Z,1016.16
2023-05-21T01:33:49.214Z,1016.17
2023-05-21T01:34:50.542Z,1016.17
2023-05-21T01:35:49.140Z,1016.17
2023-05-21T01:36:49.116Z,1016.17
2023-05-21T01:37:49.115Z,1016.16
2023-05-21T01:38:49.098Z,1016.16
2023-05-21T01:39:49.122Z,1016.15
2023-05-21T01:40:49.074Z,1016.15
2023-05-21T01:41:49.396Z,1016.15
2023-05-21T01:42:49.052Z,1016.15
2023-05-21T01:43:49.056Z,1016.15
2023-05-21T01:44:49.055Z,1016.14
2023-05-21T01:45:49.033Z,1016.16
2023-05-21T01:46:49.117Z,1016.16
2023-05-21T01:47:50.458Z,1016.16
2023-05-21T01:48:49.012Z,1016.16
2023-05-21T01:49:53.189Z,1016.14
2023-05-21T01:50:48.972Z,1016.12
2023-05-21T01:51:48.985Z,1016.11
2023-05-21T01:52:48.952Z,1016.10
2023-05-21T01:53:48.968Z,1016.10
2023-05-21T01:54:48.935Z,1016.08
2023-05-21T01:55:48.916Z,1016.08
2023-05-21T01:56:48.922Z,1016.08
2023-05-21T01:57:48.908Z,1016.06
2023-05-21T01:58:48.913Z,1016.05
2023-05-21T01:59:48.885Z,1016.06
2023-05-21T02:00:48.878Z,1016.07
2023-05-21T02:01:49.807Z,1016.06
2023-05-21T02:02:49.120Z,1016.06
2023-05-21T02:03:48.982Z,1016.06
2023-05-21T02:04:48.845Z,1016.05
2023-05-21T02:05:48.817Z,1016.04
2023-05-21T02:06:48.836Z,1016.04
2023-05-21T02:07:48.805Z,1016.02
2023-05-21T02:08:48.824Z,1016.02
2023-05-21T02:09:48.780Z,1016.00
2023-05-21T02:10:48.774Z,1016.01
2023-05-21T02:11:48.763Z,1016.02
2023-05-21T02:12:48.772Z,1016.01
2023-05-21T02:13:48.780Z,1016.02
2023-05-21T02:14:48.744Z,1015.99
2023-05-21T02:15:48.772Z,1016.00
2023-05-21T02:16:50.221Z,1015.99
2023-05-21T02:17:48.757Z,1015.99
2023-05-21T02:18:48.706Z,1016.00
2023-05-21T02:19:49.478Z,1015.99
2023-05-21T02:20:48.698Z,1015.98
2023-05-21T02:21:48.657Z,1015.98
2023-05-21T02:22:48.616Z,1015.95
2023-05-21T02:23:48.672Z,1015.94
2023-05-21T02:24:48.650Z,1015.92
2023-05-21T02:25:48.617Z,1015.91
2023-05-21T02:26:48.569Z,1015.91
2023-05-21T02:27:48.540Z,1015.91
2023-05-21T02:28:48.536Z,1015.91
2023-05-21T02:29:48.522Z,1015.90
2023-05-21T02:30:48.533Z,1015.90
2023-05-21T02:31:48.515Z,1015.89
2023-05-21T02:32:48.526Z,1015.88
2023-05-21T02:33:48.503Z,1015.87
2023-05-21T02:34:48.482Z,1015.87
2023-05-21T02:35:48.483Z,1015.86
2023-05-21T02:36:48.494Z,1015.87
2023-05-21T02:37:48.437Z,1015.86
2023-05-21T02:38:48.433Z,1015.86
2023-05-21T02:39:48.425Z,1015.85
2023-05-21T02:40:49.044Z,1015.84
2023-05-21T02:41:48.410Z,1015.85
2023-05-21T02:42:48.401Z,1015.85
2023-05-21T02:43:48.374Z,1015.85
2023-05-21T02:44:48.363Z,1015.85
2023-05-21T02:45:48.403Z,1015.85
2023-05-21T02:46:48.348Z,1015.83
2023-05-21T02:47:48.382Z,1015.83
2023-05-21T02:48:48.333Z,1015.82
2023-05-21T02:49:48.306Z,1015.83
2023-05-21T02:50:48.316Z,1015.81
2023-05-21T02:51:48.291Z,1015.81
2023-05-21T02:52:48.732Z,1015.80
2023-05-21T02:53:48.274Z,1015.80
2023-05-21T02:54:48.268Z,1015.78
2023-05-21T02:55:48.253Z,1015.78
2023-05-21T02:56:48.293Z,1015.76
2023-05-21T02:57:48.216Z,1015.74
2023-05-21T02:58:48.231Z,1015.72
2023-05-21T02:59:48.201Z,1015.71
2023-05-21T03:00:48.197Z,1015.70
2023-05-21T03:01:48.263Z,1015.70
2023-05-21T03:02:48.355Z,1015.73
2023-05-21T03:03:48.266Z,1015.71
2023-05-21T03:04:48.165Z,1015.71
2023-05-21T03:05:48.143Z,1015.71
2023-05-21T03:06:48.145Z,1015.73
2023-05-21T03:07:48.161Z,1015.71
2023-05-21T03:08:48.120Z,1015.73
2023-05-21T03:09:48.098Z,1015.72
2023-05-21T03:10:48.093Z,1015.72
2023-05-21T03:11:48.084Z,1015.71
2023-05-21T03:12:48.097Z,1015.72
2023-05-21T03:13:48.110Z,1015.70
2023-05-21T03:14:48.071Z,1015.70
2023-05-21T03:15:49.410Z,1015.69
2023-05-21T03:16:48.082Z,1015.68
2023-05-21T03:17:48.064Z,1015.70
2023-05-21T03:18:48.024Z,1015.69
2023-05-21T03:19:48.025Z,1015.70
2023-05-21T03:20:47.994Z,1015.70
2023-05-21T03:21:47.972Z,1015.70
2023-05-21T03:22:47.983Z,1015.70
2023-05-21T03:23:47.951Z,1015.72
2023-05-21T03:24:47.972Z,1015.72
2023-05-21T03:25:47.933Z,1015.73
2023-05-21T03:26:49.899Z,1015.74
2023-05-21T03:27:47.913Z,1015.74
2023-05-21T03:28:47.924Z,1015.72
2023-05-21T03:29:47.919Z,1015.71
2023-05-21T03:30:47.896Z,1015.72
2023-05-21T03:31:47.899Z,1015.72
2023-05-21T03:32:47.945Z,1015.77
2023-05-21T03:33:47.867Z,1015.76
2023-05-21T03:34:47.882Z,1015.77
2023-05-21T03:35:47.825Z,1015.77
2023-05-21T03:36:47.825Z,1015.76
2023-05-21T03:37:47.821Z,1015.76
2023-05-21T03:38:47.831Z,1015.75
2023-05-21T03:39:47.791Z,1015.76
2023-05-21T03:40:47.788Z,1015.78
2023-05-21T03:41:47.774Z,1015.77
2023-05-21T03:42:47.768Z,1015.78
2023-05-21T03:43:47.761Z,1015.77
2023-05-21T03:44:47.769Z,1015.78
2023-05-21T03:45:47.755Z,1015.77
2023-05-21T03:46:47.726Z,1015.77
2023-05-21T03:47:47.725Z,1015.76
2023-05-21T03:48:47.706Z,1015.76
2023-05-21T03:49:47.698Z,1015.75
2023-05-21T03:50:47.683Z,1015.76
2023-05-21T03:51:47.662Z,1015.77
2023-05-21T03:52:47.654Z,1015.77
2023-05-21T03:53:47.644Z,1015.77
2023-05-21T03:54:47.675Z,1015.78
2023-05-21T03:55:47.620Z,1015.77
2023-05-21T03:56:47.628Z,1015.77
2023-05-21T03:57:47.600Z,1015.77
2023-05-21T03:58:47.602Z,1015.77
2023-05-21T03:59:47.595Z,1015.79
2023-05-21T04:00:47.584Z,1015.81
2023-05-21T04:01:48.162Z,1015.81
2023-05-21T04:02:47.607Z,1015.82
2023-05-21T04:03:47.721Z,1015.81
2023-05-21T04:04:47.682Z,1015.84
2023-05-21T04:05:47.530Z,1015.84
2023-05-21T04:06:47.523Z,1015.87
2023-05-21T04:07:47.511Z,1015.87
2023-05-21T04:08:47.502Z,1015.87
2023-05-21T04:09:47.522Z,1015.90
2023-05-21T04:10:47.468Z,1015.91
2023-05-21T04:11:47.459Z,1015.91
2023-05-21T04:12:47.457Z,1015.91
2023-05-21T04:13:47.435Z,1015.92
2023-05-21T04:14:47.462Z,1015.94
2023-05-21T04:15:47.444Z,1015.95
2023-05-21T04:16:47.414Z,1015.93
2023-05-21T04:17:47.429Z,1015.93
2023-05-21T04:18:47.497Z,1015.92
2023-05-21T04:19:47.399Z,1015.93
2023-05-21T04:20:47.376Z,1015.94
2023-05-21T04:21:47.373Z,1015.95
2023-05-21T04:22:47.354Z,1015.95
2023-05-21T04:23:47.333Z,1015.94
2023-05-21T04:24:47.366Z,1015.94
2023-05-21T04:25:47.325Z,1015.93
2023-05-21T04:26:47.373Z,1015.93
2023-05-21T04:27:47.301Z,1015.93
2023-05-21T04:28:47.295Z,1015.92
2023-05-21T04:29:48.465Z,1015.95
2023-05-21T04:30:47.265Z,1015.95
2023-05-21T04:31:47.299Z,1015.94
2023-05-21T04:32:47.316Z,1015.96
2023-05-21T04:33:47.232Z,1015.97
2023-05-21T04:34:47.235Z,1015.98
2023-05-21T04:35:47.408Z,1015.98
2023-05-21T04:36:47.231Z,1015.98
2023-05-21T04:37:47.192Z,1015.96
2023-05-21T04:38:47.198Z,1015.93
2023-05-21T04:39:47.169Z,1015.94
2023-05-21T04:40:47.169Z,1015.94
2023-05-21T04:41:47.181Z,1015.97
2023-05-21T04:42:47.156Z,1015.98
2023-05-21T04:43:47.125Z,1015.97
2023-05-21T04:44:47.142Z,1015.96
2023-05-21T04:45:49.732Z,1015.95
2023-05-21T04:46:47.172Z,1015.95
2023-05-21T04:47:47.138Z,1015.96
2023-05-21T04:48:47.096Z,1015.95
2023-05-21T04:49:47.096Z,1015.95
2023-05-21T04:50:47.078Z,1015.94
2023-05-21T04:51:47.077Z,1015.96
2023-05-21T04:52:47.058Z,1015.95
2023-05-21T04:53:47.044Z,1015.97
2023-05-21T04:54:47.050Z,1015.97
2023-05-21T04:55:47.030Z,1015.98
2023-05-21T04:56:47.011Z,1015.95
2023-05-21T04:57:47.011Z,1015.94
2023-05-21T04:58:47.025Z,1015.94
2023-05-21T04:59:47.017Z,1015.94
2023-05-21T05:00:47.374Z,1015.95
2023-05-21T05:01:46.968Z,1015.94
2023-05-21T05:02:47.040Z,1015.93
2023-05-21T05:03:46.955Z,1015.94
2023-05-21T05:04:46.925Z,1015.91
2023-05-21T05:05:46.911Z,1015.94
2023-05-21T05:06:46.901Z,1015.93
2023-05-21T05:07:46.908Z,1015.92
2023-05-21T05:08:46.886Z,1015.92
2023-05-21T05:09:46.862Z,1015.91
2023-05-21T05:10:46.869Z,1015.89
2023-05-21T05:11:46.847Z,1015.91
2023-05-21T05:12:46.858Z,1015.90
2023-05-21T05:13:48.454Z,1015.90
2023-05-21T05:14:48.469Z,1015.89
2023-05-21T05:15:49.344Z,1015.90
2023-05-21T05:16:47.283Z,1015.90
2023-05-21T05:17:47.440Z,1015.91
2023-05-21T05:18:48.577Z,1015.90
2023-05-21T05:19:46.781Z,1015.90
2023-05-21T05:20:46.763Z,1015.89
2023-05-21T05:21:46.771Z,1015.93
2023-05-21T05:22:46.733Z,1015.92
2023-05-21T05:23:46.718Z,1015.95
2023-05-21T05:24:46.717Z,1015.95
2023-05-21T05:25:46.715Z,1015.94
2023-05-21T05:26:46.716Z,1015.97
2023-05-21T05:27:46.687Z,1015.96
2023-05-21T05:28:46.682Z,1015.95
2023-05-21T05:29:46.685Z,1015.94
2023-05-21T05:30:46.676Z,1015.94
2023-05-21T05:31:46.632Z,1015.95
2023-05-21T05:32:46.668Z,1015.92
2023-05-21T05:33:46.623Z,1015.91
2023-05-21T05:34:46.645Z,1015.89
2023-05-21T05:35:46.601Z,1015.89
2023-05-21T05:36:46.594Z,1015.90
2023-05-21T05:37:46.580Z,1015.90
2023-05-21T05:38:46.629Z,1015.89
2023-05-21T05:39:46.542Z,1015.87
2023-05-21T05:40:46.592Z,1015.89
2023-05-21T05:41:46.535Z,1015.90
2023-05-21T05:42:46.548Z,1015.85
2023-05-21T05:43:46.525Z,1015.86
2023-05-21T05:44:46.516Z,1015.84
2023-05-21T05:45:48.397Z,1015.86
2023-05-21T05:46:46.607Z,1015.86
2023-05-21T05:47:46.530Z,1015.85
2023-05-21T05:48:46.468Z,1015.88
2023-05-21T05:49:46.450Z,1015.86
2023-05-21T05:50:46.476Z,1015.87
2023-05-21T05:51:46.426Z,1015.89
2023-05-21T05:52:46.454Z,1015.89
2023-05-21T05:53:46.399Z,1015.88
2023-05-21T05:54:46.405Z,1015.87
2023-05-21T05:55:46.405Z,1015.87
2023-05-21T05:56:46.404Z,1015.87
2023-05-21T05:57:46.370Z,1015.85
2023-05-21T05:58:46.363Z,1015.84
2023-05-21T05:59:46.352Z,1015.84
2023-05-21T06:00:46.337Z,1015.83
2023-05-21T06:01:46.346Z,1015.84
2023-05-21T06:02:46.361Z,1015.86
2023-05-21T06:03:46.411Z,1015.88
2023-05-21T06:04:46.306Z,1015.87
2023-05-21T06:05:46.372Z,1015.84
2023-05-21T06:06:46.270Z,1015.85
2023-05-21T06:07:46.303Z,1015.82
2023-05-21T06:08:46.286Z,1015.84
2023-05-21T06:09:46.254Z,1015.84
2023-05-21T06:10:46.255Z,1015.85
2023-05-21T06:11:46.230Z,1015.87
2023-05-21T06:12:46.226Z,1015.88
2023-05-21T06:13:46.205Z,1015.85
2023-05-21T06:14:46.225Z,1015.81
2023-05-21T06:15:46.275Z,1015.82
2023-05-21T06:16:46.223Z,1015.81
2023-05-21T06:17:47.656Z,1015.82
2023-05-21T06:18:46.204Z,1015.81
2023-05-21T06:19:46.137Z,1015.82
2023-05-21T06:20:46.115Z,1015.80
2023-05-21T06:21:46.147Z,1015.76
2023-05-21T06:22:46.135Z,1015.74
2023-05-21T06:23:46.100Z,1015.74
2023-05-21T06:24:46.073Z,1015.74
2023-05-21T06:25:46.076Z,1015.74
2023-05-21T06:26:46.063Z,1015.73
2023-05-21T06:27:46.058Z,1015.73
2023-05-21T06:28:46.072Z,1015.72
2023-05-21T06:29:46.043Z,1015.72
2023-05-21T06:30:46.021Z,1015.70
2023-05-21T06:31:46.026Z,1015.70
2023-05-21T06:32:46.025Z,1015.70
2023-05-21T06:33:46.221Z,1015.70
2023-05-21T06:34:45.985Z,1015.70
2023-05-21T06:35:46.015Z,1015.71
2023-05-21T06:36:45.952Z,1015.72
2023-05-21T06:37:45.958Z,1015.71
2023-05-21T06:38:45.951Z,1015.72
2023-05-21T06:39:45.935Z,1015.73
2023-05-21T06:40:47.253Z,1015.72
2023-05-21T06:41:45.923Z,1015.71
2023-05-21T06:42:45.895Z,1015.73
2023-05-21T06:43:45.913Z,1015.71
2023-05-21T06:44:45.867Z,1015.71
2023-05-21T06:45:49.286Z,1015.70
2023-05-21T06:46:47.379Z,1015.71
2023-05-21T06:47:46.030Z,1015.72
2023-05-21T06:48:47.030Z,1015.72
2023-05-21T06:49:45.826Z,1015.71
2023-05-21T06:50:45.824Z,1015.71
2023-05-21T06:51:45.818Z,1015.71
2023-05-21T06:52:45.790Z,1015.70
2023-05-21T06:53:48.775Z,1015.69
2023-05-21T06:54:45.764Z,1015.69
2023-05-21T06:55:45.768Z,1015.70
2023-05-21T06:56:45.746Z,1015.70
2023-05-21T06:57:45.748Z,1015.69
2023-05-21T06:58:45.761Z,1015.70
2023-05-21T06:59:45.745Z,1015.68
2023-05-21T07:00:46.460Z,1015.67
2023-05-21T07:01:46.542Z,1015.64
2023-05-21T07:02:45.736Z,1015.64
2023-05-21T07:03:45.790Z,1015.65
2023-05-21T07:04:47.033Z,1015.65
2023-05-21T07:05:45.652Z,1015.63
2023-05-21T07:06:45.656Z,1015.62
2023-05-21T07:07:45.656Z,1015.62
2023-05-21T07:08:45.622Z,1015.63
2023-05-21T07:09:45.615Z,1015.62
2023-05-21T07:10:46.201Z,1015.62
2023-05-21T07:11:45.617Z,1015.63
2023-05-21T07:12:45.600Z,1015.62
2023-05-21T07:13:45.572Z,1015.58
2023-05-21T07:14:45.570Z,1015.59
2023-05-21T07:15:45.567Z,1015.54
2023-05-21T07:16:45.565Z,1015.56
2023-05-21T07:17:45.590Z,1015.53
2023-05-21T07:18:45.537Z,1015.51
2023-05-21T07:19:45.526Z,1015.52
2023-05-21T07:20:45.519Z,1015.50
2023-05-21T07:21:45.506Z,1015.49
2023-05-21T07:22:45.495Z,1015.46
2023-05-21T07:23:45.469Z,1015.48
2023-05-21T07:24:45.447Z,1015.48
2023-05-21T07:25:45.469Z,1015.43
2023-05-21T07:26:46.891Z,1015.47
2023-05-21T07:27:45.448Z,1015.47
2023-05-21T07:28:45.405Z,1015.42
2023-05-21T07:29:45.403Z,1015.42
2023-05-21T07:30:47.037Z,1015.39
2023-05-21T07:31:45.385Z,1015.38
2023-05-21T07:32:45.412Z,1015.38
2023-05-21T07:33:45.374Z,1015.36
2023-05-21T07:34:45.940Z,1015.36
2023-05-21T07:35:45.367Z,1015.40
2023-05-21T07:36:45.334Z,1015.36
2023-05-21T07:37:47.001Z,1015.36
2023-05-21T07:38:45.535Z,1015.33
2023-05-21T07:39:45.305Z,1015.33
2023-05-21T07:40:45.303Z,1015.35
2023-05-21T07:41:45.284Z,1015.34
2023-05-21T07:42:45.264Z,1015.30
2023-05-21T07:43:46.887Z,1015.30
2023-05-21T07:44:45.330Z,1015.29
2023-05-21T07:45:45.248Z,1015.31
2023-05-21T07:46:45.255Z,1015.28
2023-05-21T07:47:45.294Z,1015.29
2023-05-21T07:48:45.204Z,1015.26
2023-05-21T07:49:45.849Z,1015.29
2023-05-21T07:50:45.449Z,1015.33
2023-05-21T07:51:45.188Z,1015.30
2023-05-21T07:52:48.681Z,1015.27
2023-05-21T07:53:45.165Z,1015.31
2023-05-21T07:54:45.777Z,1015.33
2023-05-21T07:55:45.138Z,1015.30
2023-05-21T07:56:45.754Z,1015.30
2023-05-21T07:57:45.119Z,1015.29
2023-05-21T07:58:45.105Z,1015.31
2023-05-21T07:59:45.107Z,1015.32
2023-05-21T08:00:45.092Z,1015.30
2023-05-21T08:01:45.110Z,1015.27
2023-05-21T08:02:45.160Z,1015.26
2023-05-21T08:03:45.238Z,1015.30
2023-05-21T08:04:45.071Z,1015.25
2023-05-21T08:05:46.604Z,1015.25
2023-05-21T08:06:45.061Z,1015.26
2023-05-21T08:07:45.026Z,1015.21
2023-05-21T08:08:45.005Z,1015.19
2023-05-21T08:09:46.628Z,1015.23
2023-05-21T08:10:48.041Z,1015.20
2023-05-21T08:11:45.610Z,1015.25
2023-05-21T08:12:44.963Z,1015.27
2023-05-21T08:13:44.964Z,1015.17
2023-05-21T08:14:44.983Z,1015.22
2023-05-21T08:15:44.959Z,1015.27
2023-05-21T08:16:46.625Z,1015.19
2023-05-21T08:17:44.968Z,1015.20
2023-05-21T08:18:44.969Z,1015.20
2023-05-21T08:19:44.942Z,1015.20
2023-05-21T08:20:44.883Z,1015.19
2023-05-21T08:21:44.902Z,1015.23
2023-05-21T08:22:44.876Z,1015.21
2023-05-21T08:23:45.570Z,1015.23
2023-05-21T08:24:45.570Z,1015.22
2023-05-21T08:25:44.839Z,1015.24
2023-05-21T08:26:44.828Z,1015.25
2023-05-21T08:27:45.436Z,1015.22
2023-05-21T08:28:44.805Z,1015.22
2023-05-21T08:29:44.828Z,1015.27
2023-05-21T08:30:44.796Z,1015.27
2023-05-21T08:31:46.334Z,1015.25
2023-05-21T08:32:44.787Z,1015.23
2023-05-21T08:33:44.772Z,1015.24
2023-05-21T09:08:17.747Z,1015.32
2023-05-21T09:09:18.730Z,1015.33
2023-05-21T09:10:18.700Z,1015.40
2023-05-21T09:11:18.721Z,1015.32
2023-05-21T09:12:18.697Z,1015.29
2023-05-21T09:13:18.692Z,1015.32
2023-05-21T09:14:18.663Z,1015.32
2023-05-21T09:15:18.675Z,1015.37
2023-05-21T09:16:18.690Z,1015.34
2023-05-21T09:17:18.634Z,1015.28
2023-05-21T09:18:18.644Z,1015.31
2023-05-21T09:19:18.736Z,1015.29
2023-05-21T09:20:18.647Z,1015.31
2023-05-21T09:21:18.607Z,1015.29
2023-05-21T09:22:18.577Z,1015.27
2023-05-21T09:23:18.580Z,1015.27
2023-05-21T09:24:18.575Z,1015.27
2023-05-21T09:25:18.584Z,1015.27
2023-05-21T09:26:18.537Z,1015.26
2023-05-21T09:27:18.542Z,1015.26
2023-05-21T09:28:18.537Z,1015.23
2023-05-21T09:29:18.517Z,1015.23
2023-05-21T09:30:18.582Z,1015.30
2023-05-21T09:31:18.546Z,1015.24
2023-05-21T09:32:18.484Z,1015.17
2023-05-21T09:33:18.487Z,1015.14
2023-05-21T09:34:18.465Z,1015.16
2023-05-21T09:35:18.448Z,1015.14
2023-05-21T09:36:18.465Z,1015.10
2023-05-21T09:37:27.157Z,1015.12
2023-05-21T09:38:18.421Z,1015.13
2023-05-21T09:39:18.782Z,1015.13
2023-05-21T09:40:18.410Z,1015.11
2023-05-21T09:41:21.594Z,1015.12
2023-05-21T09:42:18.380Z,1015.15
2023-05-21T09:43:18.405Z,1015.18
2023-05-21T09:44:18.381Z,1015.15
2023-05-21T09:45:18.382Z,1015.13
2023-05-21T09:46:18.375Z,1015.12
2023-05-21T09:47:18.338Z,1015.15
2023-05-21T09:48:18.324Z,1015.11
2023-05-21T09:49:18.333Z,1015.13
2023-05-21T09:50:18.351Z,1015.13
2023-05-21T09:51:18.360Z,1015.14
2023-05-21T09:52:18.295Z,1015.11
2023-05-21T09:53:18.264Z,1015.16
2023-05-21T09:54:18.278Z,1015.11
2023-05-21T09:55:19.379Z,1015.09
2023-05-21T09:56:18.254Z,1015.14
2023-05-21T09:57:18.235Z,1015.07
2023-05-21T09:58:18.214Z,1015.06
2023-05-21T09:59:19.895Z,1015.05
2023-05-21T10:00:19.405Z,1015.04
2023-05-21T10:01:18.220Z,1014.99
2023-05-21T10:02:18.319Z,1014.99
2023-05-21T10:03:20.965Z,1014.99
2023-05-21T10:04:18.168Z,1014.95
2023-05-21T10:05:18.160Z,1014.91
2023-05-21T10:06:18.159Z,1014.95
2023-05-21T10:07:18.129Z,1014.90
2023-05-21T10:08:18.715Z,1015.03
2023-05-21T10:09:18.114Z,1014.88
2023-05-21T10:10:18.708Z,1014.88
2023-05-21T10:11:21.842Z,1014.83
2023-05-21T10:12:18.073Z,1014.88
2023-05-21T10:13:18.083Z,1014.79
2023-05-21T10:14:19.673Z,1014.82
2023-05-21T10:15:18.055Z,1014.76
2023-05-21T10:16:18.672Z,1014.85
2023-05-21T10:17:18.036Z,1014.91
2023-05-21T10:18:18.052Z,1014.76
2023-05-21T10:19:18.102Z,1014.82
2023-05-21T10:20:19.612Z,1014.86
2023-05-21T10:21:17.999Z,1014.74
2023-05-21T10:22:18.018Z,1014.75
2023-05-21T10:23:17.977Z,1014.77
2023-05-21T10:24:17.956Z,1014.83
2023-05-21T10:25:17.954Z,1014.70
2023-05-21T10:26:17.940Z,1014.66
2023-05-21T10:27:17.963Z,1014.70
2023-05-21T10:28:17.927Z,1014.68
2023-05-21T10:29:19.612Z,1014.64
2023-05-21T10:30:17.899Z,1014.72
2023-05-21T10:31:17.899Z,1014.69
2023-05-21T10:32:19.693Z,1014.71
2023-05-21T10:33:18.515Z,1014.67
2023-05-21T10:34:17.868Z,1014.65
2023-05-21T10:35:19.448Z,1014.60
2023-05-21T10:36:17.851Z,1014.74
2023-05-21T10:37:17.883Z,1014.66
2023-05-21T10:38:17.813Z,1014.72
2023-05-21T10:39:18.535Z,1014.65
2023-05-21T10:40:21.245Z,1014.63
2023-05-21T10:41:18.508Z,1014.60
2023-05-21T10:42:19.390Z,1014.61
2023-05-21T10:43:17.788Z,1014.60
2023-05-21T10:44:18.130Z,1014.59
2023-05-21T10:45:17.770Z,1014.58
2023-05-21T10:46:18.494Z,1014.62
2023-05-21T10:47:18.400Z,1014.57
2023-05-21T10:48:17.782Z,1014.58
2023-05-21T10:49:18.410Z,1014.51
2023-05-21T10:50:17.715Z,1014.61
2023-05-21T10:51:18.337Z,1014.61
2023-05-21T10:52:18.344Z,1014.65
2023-05-21T10:53:17.690Z,1014.61
2023-05-21T10:54:17.721Z,1014.61
2023-05-21T10:55:17.681Z,1014.57
2023-05-21T10:56:17.638Z,1014.69
2023-05-21T10:57:17.668Z,1014.66
2023-05-21T10:58:17.616Z,1014.62
2023-05-21T10:59:17.910Z,1014.63
2023-05-21T11:00:19.124Z,1014.69
2023-05-21T11:01:17.636Z,1014.73
2023-05-21T11:02:17.653Z,1014.62
2023-05-21T11:03:17.706Z,1014.66
2023-05-21T11:04:17.592Z,1014.62
2023-05-21T11:05:18.540Z,1014.58
2023-05-21T11:06:17.553Z,1014.54
2023-05-21T11:07:18.106Z,1014.60
2023-05-21T11:08:19.654Z,1014.50
2023-05-21T11:09:18.169Z,1014.51
2023-05-21T11:10:18.207Z,1014.60
2023-05-21T11:11:17.528Z,1014.53
2023-05-21T11:12:18.756Z,1014.62
2023-05-21T11:13:18.145Z,1014.54
2023-05-21T11:14:18.750Z,1014.60
2023-05-21T11:15:17.706Z,1014.53
2023-05-21T11:16:18.069Z,1014.49
2023-05-21T11:17:18.224Z,1014.51
2023-05-21T11:18:17.443Z,1014.54
2023-05-21T11:19:17.469Z,1014.51
2023-05-21T11:20:17.400Z,1014.48
2023-05-21T11:21:17.428Z,1014.48
2023-05-21T11:22:17.376Z,1014.43
2023-05-21T11:23:17.387Z,1014.49
2023-05-21T11:24:17.361Z,1014.48
2023-05-21T11:25:17.363Z,1014.47
2023-05-21T11:26:17.365Z,1014.45
2023-05-21T11:27:18.457Z,1014.41
2023-05-21T11:28:17.912Z,1014.41
2023-05-21T11:29:18.876Z,1014.42
2023-05-21T11:30:17.337Z,1014.43
2023-05-21T11:31:17.341Z,1014.44
2023-05-21T11:32:17.553Z,1014.48
2023-05-21T11:33:17.589Z,1014.39
2023-05-21T11:34:17.306Z,1014.40
2023-05-21T11:35:17.913Z,1014.43
2023-05-21T11:36:17.848Z,1014.36
2023-05-21T11:37:17.249Z,1014.41
2023-05-21T11:38:17.237Z,1014.39
2023-05-21T11:39:18.948Z,1014.37
2023-05-21T11:40:17.520Z,1014.35
2023-05-21T11:41:17.828Z,1014.36
2023-05-21T11:42:17.189Z,1014.30
2023-05-21T11:43:17.196Z,1014.28
2023-05-21T11:44:17.199Z,1014.31
2023-05-21T11:45:17.189Z,1014.23
2023-05-21T11:46:17.217Z,1014.33
2023-05-21T11:47:17.174Z,1014.40
2023-05-21T11:48:17.138Z,1014.31
2023-05-21T11:49:17.132Z,1014.37
2023-05-21T11:50:17.127Z,1014.44
2023-05-21T11:51:17.109Z,1014.39
2023-05-21T11:52:17.100Z,1014.36
2023-05-21T11:53:17.104Z,1014.36
2023-05-21T11:54:18.717Z,1014.28
2023-05-21T11:55:17.536Z,1014.34
2023-05-21T11:56:17.049Z,1014.37
2023-05-21T11:57:17.064Z,1014.31
2023-05-21T11:58:17.026Z,1014.26
2023-05-21T11:59:18.839Z,1014.24
2023-05-21T12:00:17.033Z,1014.26
2023-05-21T12:01:18.627Z,1014.27
2023-05-21T12:02:16.989Z,1014.25
2023-05-21T12:03:17.079Z,1014.29
2023-05-21T12:04:18.606Z,1014.24
2023-05-21T12:05:17.028Z,1014.32
2023-05-21T12:06:17.030Z,1014.33
2023-05-21T12:07:16.962Z,1014.22
2023-05-21T12:08:16.920Z,1014.30
2023-05-21T12:09:18.566Z,1014.28
2023-05-21T12:10:16.913Z,1014.28
2023-05-21T12:11:16.933Z,1014.29
2023-05-21T12:12:16.895Z,1014.36
2023-05-21T12:13:16.884Z,1014.34
2023-05-21T12:14:17.506Z,1014.32
2023-05-21T12:15:16.892Z,1014.36
2023-05-21T12:16:16.891Z,1014.37
2023-05-21T12:17:16.860Z,1014.18
2023-05-21T12:18:16.848Z,1014.19
2023-05-21T12:19:16.833Z,1014.26
2023-05-21T12:20:16.843Z,1014.33
2023-05-21T12:21:16.843Z,1014.34
2023-05-21T12:22:16.824Z,1014.29
2023-05-21T12:23:16.780Z,1014.32
2023-05-21T12:24:16.813Z,1014.24
2023-05-21T12:25:17.712Z,1014.21
2023-05-21T12:26:16.791Z,1014.27
2023-05-21T12:27:16.809Z,1014.17
2023-05-21T12:28:16.764Z,1014.28
2023-05-21T12:29:17.980Z,1014.14
2023-05-21T12:30:16.736Z,1014.24
2023-05-21T12:31:16.748Z,1014.16
2023-05-21T12:32:16.703Z,1014.23
2023-05-21T12:33:16.706Z,1014.22
2023-05-21T12:34:16.711Z,1014.26
2023-05-21T12:35:16.704Z,1014.11
2023-05-21T12:36:16.658Z,1014.12
2023-05-21T12:37:16.657Z,1014.17
2023-05-21T12:38:16.678Z,1014.11
2023-05-21T12:39:16.632Z,1014.08